Time;durP1;ratioP1;P1;durP2;ratioP2;P2;SDS_P1;SDS_P2;PMS_P1;PMS_P2;Temp;Humidity;BMP_temperature;BMP_pressure;BME280_temperature;BME280_humidity;BME280_pressure;Samples;Min_cycle;Max_cycle;Signal;HPM_P1;HPM_P2
2024/02/12 00:00:25;;;;;;;;;;;;;;;;;;5135488;27;19915;-74
2024/02/12 00:02:51;;;;;;;;;;;;;;;;;;5135401;27;19911;-74
2024/02/12 00:05:17;;;;;;;;;;;;;;;;;;5134949;27;20023;-74
2024/02/12 00:07:42;;;;;;;;;;;;;;;;;;5135353;27;19931;-73
2024/02/12 00:10:10;;;;;;;;;;;;;;;;;;5135194;27;19922;-74
2024/02/12 00:12:36;;;;;;;;;;;;;;;;;;5134912;27;19908;-74
2024/02/12 00:15:02;;;;;;;;;;;;;;;;;;5135175;27;19930;-74
2024/02/12 00:17:28;;;;;;;;;;;;;;;;;;5135067;27;19961;-74
2024/02/12 00:19:54;;;;;;;;;;;;;;;;;;5134760;27;19908;-73
2024/02/12 00:22:20;;;;;;;;;;;;;;;;;;5135064;27;20265;-74
2024/02/12 00:24:47;;;;;;;;;;;;;;;;;;5135245;27;20344;-74
2024/02/12 00:27:13;;;;;;;;;;;;;;;;;;5134372;27;19926;-74
2024/02/12 00:29:39;;;;;;;;;;;;;;;;;;5134797;27;19916;-74
2024/02/12 00:32:05;;;;;;;;;;;;;;;;;;5134284;27;19953;-74
2024/02/12 00:34:34;;;;;;;;;;;;;;;;;;5134546;27;19907;-74
2024/02/12 00:37:00;;;;;;;;;;;;;;;;;;5134802;27;19908;-74
2024/02/12 00:39:27;;;;;;;;;;;;;;;;;;5134828;27;19962;-74
2024/02/12 00:41:53;;;;;;;;;;;;;;;;;;5134368;27;19908;-74
2024/02/12 00:44:19;;;;;;;;;;;;;;;;;;5134710;27;19915;-74
2024/02/12 00:46:46;;;;;;;;;;;;;;;;;;5134508;27;19907;-74
2024/02/12 00:49:12;;;;;;;;;;;;;;;;;;5134809;28;19912;-75
2024/02/12 00:51:40;;;;;;;;;;;;;;;;;;5135006;28;19930;-74
2024/02/12 00:54:06;;;;;;;;;;;;;;;;;;5134358;28;19955;-74
2024/02/12 00:56:33;;;;;;;;;;;;;;;;;;5134814;28;19972;-74
2024/02/12 00:59:00;;;;;;;;;;;;;;;;;;5134967;28;19915;-74
2024/02/12 01:01:25;;;;;;;;;;;;;;;;;;5134404;28;19911;-74
2024/02/12 01:03:51;;;;;;;;;;;;;;;;;;5134917;28;19914;-74
2024/02/12 01:06:17;;;;;;;;;;;;;;;;;;5134955;28;19957;-74
2024/02/12 01:08:43;;;;;;;;;;;;;;;;;;5134549;28;20359;-74
2024/02/12 01:11:09;;;;;;;;;;;;;;;;;;5136042;28;19912;-74
2024/02/12 01:13:35;;;;;;;;;;;;;;;;;;5136253;28;20470;-73
2024/02/12 01:16:01;;;;;;;;;;;;;;;;;;5117342;28;19907;-74
2024/02/12 01:18:28;;;;;;;;;;;;;;;;;;5134377;28;19946;-74
2024/02/12 01:20:55;;;;;;;;;;;;;;;;;;5134462;28;19908;-74
2024/02/12 01:23:21;;;;;;;;;;;;;;;;;;5134165;28;19908;-74
2024/02/12 01:25:50;;;;;;;;;;;;;;;;;;5134342;28;20271;-74
2024/02/12 01:28:16;;;;;;;;;;;;;;;;;;5134168;28;20412;-74
2024/02/12 01:30:42;;;;;;;;;;;;;;;;;;5133929;28;19951;-74
2024/02/12 01:33:08;;;;;;;;;;;;;;;;;;5134278;28;19908;-75
2024/02/12 01:35:34;;;;;;;;;;;;;;;;;;5134237;28;20358;-74
2024/02/12 01:38:00;;;;;;;;;;;;;;;;;;5133833;28;20000;-74
2024/02/12 01:40:27;;;;;;;;;;;;;;;;;;5134200;28;20009;-74
2024/02/12 01:42:53;;;;;;;;;;;;;;;;;;5135071;27;20338;-74
2024/02/12 01:45:26;;;;;;;;;;;;;;;;;;5138102;27;20420;-74
2024/02/12 01:47:57;;;;;;;;;;;;;;;;;;5137975;27;19915;-73
2024/02/12 01:50:23;;;;;;;;;;;;;;;;;;5137566;27;19919;-74
2024/02/12 01:52:49;;;;;;;;;;;;;;;;;;5137924;27;19915;-73
2024/02/12 01:55:15;;;;;;;;;;;;;;;;;;5137918;27;19911;-74
2024/02/12 01:57:41;;;;;;;;;;;;;;;;;;5137449;27;19914;-74
2024/02/12 02:00:10;;;;;;;;;;;;;;;;;;5137741;27;19907;-74
2024/02/12 02:02:36;;;;;;;;;;;;;;;;;;5137734;27;20287;-74
2024/02/12 02:05:04;;;;;;;;;;;;;;;;;;5137283;27;19911;-73
2024/02/12 02:07:31;;;;;;;;;;;;;;;;;;5119096;27;19956;-74
2024/02/12 02:09:57;;;;;;;;;;;;;;;;;;5137805;27;20341;-74
2024/02/12 02:12:23;;;;;;;;;;;;;;;;;;5137137;27;19914;-74
2024/02/12 02:14:49;;;;;;;;;;;;;;;;;;5137677;27;20275;-73
2024/02/12 02:17:16;;;;;;;;;;;;;;;;;;5137430;27;19959;-74
2024/02/12 02:19:42;;;;;;;;;;;;;;;;;;5136976;27;19907;-74
2024/02/12 02:22:08;;;;;;;;;;;;;;;;;;5137311;27;19907;-73
2024/02/12 02:24:34;;;;;;;;;;;;;;;;;;5137261;27;19952;-73
2024/02/12 02:27:00;;;;;;;;;;;;;;;;;;5136712;27;19940;-73
2024/02/12 02:29:26;;;;;;;;;;;;;;;;;;5137040;27;19919;-74
2024/02/12 02:31:52;;;;;;;;;;;;;;;;;;5118786;27;19907;-74
2024/02/12 02:34:18;;;;;;;;;;;;;;;;;;5136695;27;19915;-74
2024/02/12 02:36:46;;;;;;;;;;;;;;;;;;5137717;27;19915;-74
2024/02/12 02:39:12;;;;;;;;;;;;;;;;;;5136927;27;19907;-74
2024/02/12 02:41:38;;;;;;;;;;;;;;;;;;5137251;27;19908;-74
2024/02/12 02:44:04;;;;;;;;;;;;;;;;;;5136953;27;19908;-74
2024/02/12 02:46:30;;;;;;;;;;;;;;;;;;5136614;27;19950;-74
2024/02/12 02:48:57;;;;;;;;;;;;;;;;;;5136766;27;19916;-74
2024/02/12 02:51:25;;;;;;;;;;;;;;;;;;5136774;27;19954;-74
2024/02/12 02:53:51;;;;;;;;;;;;;;;;;;5136185;27;19952;-74
2024/02/12 02:56:17;;;;;;;;;;;;;;;;;;5136330;27;20002;-74
2024/02/12 02:58:43;;;;;;;;;;;;;;;;;;5136795;27;19951;-74
2024/02/12 03:01:11;;;;;;;;;;;;;;;;;;5117876;27;20003;-74
2024/02/12 03:03:37;;;;;;;;;;;;;;;;;;5136640;27;20355;-74
2024/02/12 03:06:05;;;;;;;;;;;;;;;;;;5136489;27;19967;-74
2024/02/12 03:08:34;;;;;;;;;;;;;;;;;;5136246;27;20414;-74
2024/02/12 03:11:01;;;;;;;;;;;;;;;;;;5136427;27;19912;-74
2024/02/12 03:13:27;;;;;;;;;;;;;;;;;;5136398;27;20006;-74
2024/02/12 03:15:53;;;;;;;;;;;;;;;;;;5136004;27;19965;-74
2024/02/12 03:18:23;;;;;;;;;;;;;;;;;;5136264;27;20432;-74
2024/02/12 03:20:49;;;;;;;;;;;;;;;;;;5136379;27;19915;-74
2024/02/12 03:23:15;;;;;;;;;;;;;;;;;;5135701;27;19908;-74
2024/02/12 03:25:41;;;;;;;;;;;;;;;;;;5117643;27;19914;-74
2024/02/12 03:28:07;;;;;;;;;;;;;;;;;;5135912;27;19919;-74
2024/02/12 03:30:33;;;;;;;;;;;;;;;;;;5135557;27;20321;-74
2024/02/12 03:33:02;;;;;;;;;;;;;;;;;;5135973;27;19912;-74
2024/02/12 03:35:28;;;;;;;;;;;;;;;;;;5135510;27;19978;-74
2024/02/12 03:37:54;;;;;;;;;;;;;;;;;;5136236;27;19914;-74
2024/02/12 03:40:22;;;;;;;;;;;;;;;;;;5135783;27;20364;-74
2024/02/12 03:42:51;;;;;;;;;;;;;;;;;;5135441;27;20408;-74
2024/02/12 03:45:17;;;;;;;;;;;;;;;;;;5135674;27;19908;-74
2024/02/12 03:47:44;;;;;;;;;;;;;;;;;;5135871;27;19914;-74
2024/02/12 04:01:21;;;;;;;;;;;;;;;;;;5135470;27;19913;-74
2024/02/12 04:03:49;;;;;;;;;;;;;;;;;;5135299;27;19907;-74
2024/02/12 04:06:15;;;;;;;;;;;;;;;;;;5134415;27;19938;-74
2024/02/12 04:08:42;;;;;;;;;;;;;;;;;;5135187;27;19908;-75
2024/02/12 04:11:08;;;;;;;;;;;;;;;;;;5134934;27;19918;-74
2024/02/12 04:13:34;;;;;;;;;;;;;;;;;;5135208;27;19959;-75
2024/02/12 04:16:02;;;;;;;;;;;;;;;;;;5135278;27;20316;-74
2024/02/12 04:18:30;;;;;;;;;;;;;;;;;;5116393;27;19949;-74
2024/02/12 04:20:57;;;;;;;;;;;;;;;;;;5135138;27;19911;-74
2024/02/12 04:23:23;;;;;;;;;;;;;;;;;;5135048;27;19952;-74
2024/02/12 04:25:50;;;;;;;;;;;;;;;;;;5134676;27;20301;-74
2024/02/12 04:28:18;;;;;;;;;;;;;;;;;;5134867;27;19923;-74
2024/02/12 04:30:44;;;;;;;;;;;;;;;;;;5134886;27;19915;-74
2024/02/12 04:33:10;;;;;;;;;;;;;;;;;;5134589;27;19952;-74
2024/02/12 04:35:36;;;;;;;;;;;;;;;;;;5135082;27;19915;-75
2024/02/12 04:38:02;;;;;;;;;;;;;;;;;;5135330;27;19907;-77
2024/02/12 04:40:29;;;;;;;;;;;;;;;;;;5134454;27;19998;-75
2024/02/12 04:42:57;;;;;;;;;;;;;;;;;;5134799;27;20110;-75
2024/02/12 04:45:23;;;;;;;;;;;;;;;;;;5116376;27;19999;-75
2024/02/12 04:47:49;;;;;;;;;;;;;;;;;;5134408;27;19953;-75
2024/02/12 04:50:15;;;;;;;;;;;;;;;;;;5134835;28;20363;-75
2024/02/12 04:52:41;;;;;;;;;;;;;;;;;;5116239;28;20359;-75
2024/02/12 04:55:07;;;;;;;;;;;;;;;;;;5115911;28;20378;-75
2024/02/12 04:57:33;;;;;;;;;;;;;;;;;;5134613;28;19913;-74
2024/02/12 04:59:59;;;;;;;;;;;;;;;;;;5134403;28;20317;-75
2024/02/12 05:02:26;;;;;;;;;;;;;;;;;;5134845;28;19914;-75
2024/02/12 05:04:53;;;;;;;;;;;;;;;;;;5134648;28;20357;-75
2024/02/12 05:07:18;;;;;;;;;;;;;;;;;;5134119;28;19994;-75
2024/02/12 05:09:44;;;;;;;;;;;;;;;;;;5115893;28;20010;-75
2024/02/12 05:12:10;;;;;;;;;;;;;;;;;;5134541;28;19930;-74
2024/02/12 05:14:36;;;;;;;;;;;;;;;;;;5134252;28;19998;-75
2024/02/12 05:17:05;;;;;;;;;;;;;;;;;;5134521;27;20324;-75
2024/02/12 05:22:34;;;;;;;;;;;;;;;;;;5138442;27;19937;-76
2024/02/12 05:25:00;;;;;;;;;;;;;;;;;;5138416;27;19961;-74
2024/02/12 05:27:26;;;;;;;;;;;;;;;;;;5138348;27;19923;-74
2024/02/12 05:29:52;;;;;;;;;;;;;;;;;;5120099;27;20252;-75
2024/02/12 05:32:21;;;;;;;;;;;;;;;;;;5138800;27;19908;-74
2024/02/12 05:34:47;;;;;;;;;;;;;;;;;;5138835;27;19960;-74
2024/02/12 05:37:13;;;;;;;;;;;;;;;;;;5138076;27;19994;-73
2024/02/12 05:39:39;;;;;;;;;;;;;;;;;;5137808;27;19912;-74
2024/02/12 05:42:05;;;;;;;;;;;;;;;;;;5137796;27;19976;-74
2024/02/12 05:44:31;;;;;;;;;;;;;;;;;;5137682;27;19985;-74
2024/02/12 05:46:59;;;;;;;;;;;;;;;;;;5138388;27;19908;-74
2024/02/12 05:49:26;;;;;;;;;;;;;;;;;;5138213;27;20371;-74
2024/02/12 05:51:52;;;;;;;;;;;;;;;;;;5138126;27;19972;-74
2024/02/12 05:54:17;;;;;;;;;;;;;;;;;;5137857;27;19907;-73
2024/02/12 05:56:43;;;;;;;;;;;;;;;;;;5137534;27;19912;-73
2024/02/12 05:59:11;;;;;;;;;;;;;;;;;;5137958;27;19961;-74
2024/02/12 06:01:37;;;;;;;;;;;;;;;;;;5137775;27;19908;-73
2024/02/12 06:04:03;;;;;;;;;;;;;;;;;;5137444;27;19914;-73
2024/02/12 06:06:29;;;;;;;;;;;;;;;;;;5137908;27;19907;-73
2024/02/12 06:08:55;;;;;;;;;;;;;;;;;;5137563;27;19918;-73
2024/02/12 06:11:21;;;;;;;;;;;;;;;;;;5137028;27;19968;-73
2024/02/12 06:13:47;;;;;;;;;;;;;;;;;;5137646;27;19907;-73
2024/02/12 06:16:13;;;;;;;;;;;;;;;;;;5135738;27;20095;-78
2024/02/12 06:18:39;;;;;;;;;;;;;;;;;;5147257;27;19918;-78
2024/02/12 06:21:05;;;;;;;;;;;;;;;;;;5119380;27;19907;-78
2024/02/12 06:23:31;;;;;;;;;;;;;;;;;;5134862;27;19923;-71
2024/02/12 06:25:58;;;;;;;;;;;;;;;;;;5142111;27;19911;-73
2024/02/12 06:28:24;;;;;;;;;;;;;;;;;;5157065;27;19923;-69
2024/02/12 06:30:50;;;;;;;;;;;;;;;;;;5155806;27;20374;-69
2024/02/12 06:33:16;;;;;;;;;;;;;;;;;;5151053;27;20424;-70
2024/02/12 06:35:43;;;;;;;;;;;;;;;;;;5134213;27;20452;-68
2024/02/12 06:38:09;;;;;;;;;;;;;;;;;;5135152;27;19911;-69
2024/02/12 06:40:35;;;;;;;;;;;;;;;;;;5129150;27;20014;-69
2024/02/12 06:43:04;;;;;;;;;;;;;;;;;;5137410;27;19947;-69
2024/02/12 06:45:30;;;;;;;;;;;;;;;;;;5144163;27;19970;-68
2024/02/12 06:47:56;;;;;;;;;;;;;;;;;;5114595;27;19950;-69
2024/02/12 06:50:23;;;;;;;;;;;;;;;;;;5133782;27;19915;-70
2024/02/12 06:52:49;;;;;;;;;;;;;;;;;;5148548;27;20509;-68
2024/02/12 06:55:15;;;;;;;;;;;;;;;;;;5150798;27;19915;-68
2024/02/12 06:57:41;;;;;;;;;;;;;;;;;;5134373;27;19965;-68
2024/02/12 07:00:07;;;;;;;;;;;;;;;;;;5135879;27;20500;-68
2024/02/12 07:02:35;;;;;;;;;;;;;;;;;;5128469;27;20045;-65
2024/02/12 07:05:04;;;;;;;;;;;;;;;;;;5114175;27;20337;-69
2024/02/12 07:07:32;;;;;;;;;;;;;;;;;;5139758;27;19920;-69
2024/02/12 07:09:58;;;;;;;;;;;;;;;;;;5132583;27;20041;-70
2024/02/12 07:12:24;;;;;;;;;;;;;;;;;;5139344;27;19942;-69
2024/02/12 07:14:51;;;;;;;;;;;;;;;;;;5138807;27;19947;-67
2024/02/12 07:17:17;;;;;;;;;;;;;;;;;;5129818;27;19996;-71
2024/02/12 07:19:43;;;;;;;;;;;;;;;;;;5140652;27;19911;-72
2024/02/12 07:22:09;;;;;;;;;;;;;;;;;;5151333;27;19907;-72
2024/02/12 07:24:36;;;;;;;;;;;;;;;;;;5133854;27;20441;-71
2024/02/12 07:27:02;;;;;;;;;;;;;;;;;;5115278;27;20271;-71
2024/02/12 07:29:28;;;;;;;;;;;;;;;;;;5145788;27;19923;-70
2024/02/12 07:31:54;;;;;;;;;;;;;;;;;;5140075;27;20005;-72
2024/02/12 07:34:20;;;;;;;;;;;;;;;;;;5150017;27;20052;-71
2024/02/12 07:36:47;;;;;;;;;;;;;;;;;;5146317;27;19911;-71
2024/02/12 07:39:16;;;;;;;;;;;;;;;;;;5135556;27;19998;-68
2024/02/12 07:41:42;;;;;;;;;;;;;;;;;;5110899;28;19918;-69
2024/02/12 07:44:10;;;;;;;;;;;;;;;;;;5111337;28;19908;-69
2024/02/12 07:46:36;;;;;;;;;;;;;;;;;;5117561;27;19918;-71
2024/02/12 07:49:04;;;;;;;;;;;;;;;;;;5132180;27;19915;-69
2024/02/12 07:51:30;;;;;;;;;;;;;;;;;;5131898;27;19918;-69
2024/02/12 07:53:56;;;;;;;;;;;;;;;;;;5151382;27;19915;-69
2024/02/12 07:56:22;;;;;;;;;;;;;;;;;;5150892;27;19911;-71
2024/02/12 07:58:48;;;;;;;;;;;;;;;;;;5151040;27;19914;-71
2024/02/12 08:01:15;;;;;;;;;;;;;;;;;;5143748;27;20010;-70
2024/02/12 08:03:41;;;;;;;;;;;;;;;;;;5136629;27;19965;-72
2024/02/12 08:06:07;;;;;;;;;;;;;;;;;;5129821;27;19907;-69
2024/02/12 08:08:33;;;;;;;;;;;;;;;;;;5131258;27;19998;-69
2024/02/12 08:10:59;;;;;;;;;;;;;;;;;;5111970;27;20562;-68
2024/02/12 08:13:25;;;;;;;;;;;;;;;;;;5131555;27;20107;-67
2024/02/12 08:15:51;;;;;;;;;;;;;;;;;;5131734;27;19914;-69
2024/02/12 08:18:19;;;;;;;;;;;;;;;;;;5147160;27;19908;-72
2024/02/12 08:20:45;;;;;;;;;;;;;;;;;;5140589;27;19919;-71
2024/02/12 08:23:11;;;;;;;;;;;;;;;;;;5144698;27;19921;-71
2024/02/12 08:25:38;;;;;;;;;;;;;;;;;;5128753;27;19943;-72
2024/02/12 08:28:04;;;;;;;;;;;;;;;;;;5130091;27;20375;-69
2024/02/12 08:30:31;;;;;;;;;;;;;;;;;;5130426;27;19920;-71
2024/02/12 08:32:59;;;;;;;;;;;;;;;;;;5113077;27;19911;-73
2024/02/12 08:35:25;;;;;;;;;;;;;;;;;;5128901;27;19943;-70
2024/02/12 08:37:50;;;;;;;;;;;;;;;;;;5112485;27;20354;-73
2024/02/12 08:40:17;;;;;;;;;;;;;;;;;;5129609;27;20454;-71
2024/02/12 08:42:45;;;;;;;;;;;;;;;;;;5130368;27;19918;-71
2024/02/12 08:45:11;;;;;;;;;;;;;;;;;;5130601;27;19992;-74
2024/02/12 08:47:37;;;;;;;;;;;;;;;;;;5142648;27;19911;-75
2024/02/12 08:50:03;;;;;;;;;;;;;;;;;;5135490;27;19928;-73
2024/02/12 08:52:31;;;;;;;;;;;;;;;;;;5127595;27;20064;-75
2024/02/12 08:54:59;;;;;;;;;;;;;;;;;;5110901;28;19918;-73
2024/02/12 08:57:25;;;;;;;;;;;;;;;;;;5142187;27;20351;-72
2024/02/12 08:59:52;;;;;;;;;;;;;;;;;;5144524;27;19911;-69
2024/02/12 09:02:18;;;;;;;;;;;;;;;;;;5135727;27;19912;-73
2024/02/12 09:04:44;;;;;;;;;;;;;;;;;;5129084;28;19916;-71
2024/02/12 09:07:11;;;;;;;;;;;;;;;;;;5130979;27;19907;-71
2024/02/12 09:09:37;;;;;;;;;;;;;;;;;;5139585;27;20014;-75
2024/02/12 09:12:03;;;;;;;;;;;;;;;;;;5132658;27;20531;-73
2024/02/12 09:14:29;;;;;;;;;;;;;;;;;;5130575;28;19940;-76
2024/02/12 09:16:55;;;;;;;;;;;;;;;;;;5112785;28;19907;-72
2024/02/12 09:19:21;;;;;;;;;;;;;;;;;;5131211;28;20006;-74
2024/02/12 09:21:47;;;;;;;;;;;;;;;;;;5114526;28;19960;-73
2024/02/12 09:24:14;;;;;;;;;;;;;;;;;;5114716;28;20327;-74
2024/02/12 09:26:40;;;;;;;;;;;;;;;;;;5120962;27;20548;-70
2024/02/12 09:29:06;;;;;;;;;;;;;;;;;;5131230;27;19987;-70
2024/02/12 09:31:33;;;;;;;;;;;;;;;;;;5133426;27;19912;-70
2024/02/12 09:34:02;;;;;;;;;;;;;;;;;;5134156;27;19911;-70
2024/02/12 09:36:28;;;;;;;;;;;;;;;;;;5133558;27;20031;-74
2024/02/12 09:38:54;;;;;;;;;;;;;;;;;;5149662;27;20002;-74
2024/02/12 09:41:20;;;;;;;;;;;;;;;;;;5140613;27;19915;-73
2024/02/12 09:43:46;;;;;;;;;;;;;;;;;;5114205;28;19915;-70
2024/02/12 09:46:12;;;;;;;;;;;;;;;;;;5131523;27;19911;-71
2024/02/12 09:48:38;;;;;;;;;;;;;;;;;;5114241;27;19961;-72
2024/02/12 09:51:05;;;;;;;;;;;;;;;;;;5129831;27;20371;-73
2024/02/12 09:53:31;;;;;;;;;;;;;;;;;;5134617;27;19911;-71
2024/02/12 09:55:57;;;;;;;;;;;;;;;;;;5140479;27;19915;-74
2024/02/12 09:58:23;;;;;;;;;;;;;;;;;;5133714;27;19916;-73
2024/02/12 10:00:50;;;;;;;;;;;;;;;;;;5140648;27;19911;-72
2024/02/12 10:03:16;;;;;;;;;;;;;;;;;;5133860;27;20362;-73
2024/02/12 10:05:42;;;;;;;;;;;;;;;;;;5138369;27;19917;-73
2024/02/12 10:08:08;;;;;;;;;;;;;;;;;;5145108;27;19929;-72
2024/02/12 10:10:34;;;;;;;;;;;;;;;;;;5128781;27;19923;-71
2024/02/12 10:13:00;;;;;;;;;;;;;;;;;;5134526;27;19919;-72
2024/02/12 10:15:28;;;;;;;;;;;;;;;;;;5141037;27;19918;-73
2024/02/12 10:17:55;;;;;;;;;;;;;;;;;;5140657;27;19919;-72
2024/02/12 10:20:21;;;;;;;;;;;;;;;;;;5114824;27;19915;-72
2024/02/12 10:22:47;;;;;;;;;;;;;;;;;;5133417;27;20016;-72
2024/02/12 10:25:13;;;;;;;;;;;;;;;;;;5147045;27;19915;-74
2024/02/12 10:27:39;;;;;;;;;;;;;;;;;;5141742;27;19972;-74
2024/02/12 10:30:05;;;;;;;;;;;;;;;;;;5144118;27;19919;-73
2024/02/12 10:32:31;;;;;;;;;;;;;;;;;;5131144;27;19911;-73
2024/02/12 10:34:57;;;;;;;;;;;;;;;;;;5138875;27;19919;-73
2024/02/12 10:37:23;;;;;;;;;;;;;;;;;;5137369;27;20457;-73
2024/02/12 10:39:49;;;;;;;;;;;;;;;;;;5134653;27;19907;-74
2024/02/12 10:42:15;;;;;;;;;;;;;;;;;;5133624;27;20403;-72
2024/02/12 10:44:43;;;;;;;;;;;;;;;;;;5132886;27;19911;-72
2024/02/12 10:47:10;;;;;;;;;;;;;;;;;;5145663;27;20469;-71
2024/02/12 10:49:38;;;;;;;;;;;;;;;;;;5135642;27;19962;-73
2024/02/12 10:52:04;;;;;;;;;;;;;;;;;;5134162;27;19919;-72
2024/02/12 10:54:30;;;;;;;;;;;;;;;;;;5131660;27;20526;-74
2024/02/12 10:56:57;;;;;;;;;;;;;;;;;;5136820;27;19912;-73
2024/02/12 10:59:24;;;;;;;;;;;;;;;;;;5148210;27;20508;-72
2024/02/12 11:01:50;;;;;;;;;;;;;;;;;;5137640;27;19918;-74
2024/02/12 11:04:16;;;;;;;;;;;;;;;;;;5141099;27;19922;-73
2024/02/12 11:06:42;;;;;;;;;;;;;;;;;;5137887;27;19911;-71
2024/02/12 11:09:08;;;;;;;;;;;;;;;;;;5152270;27;19922;-71
2024/02/12 11:11:34;;;;;;;;;;;;;;;;;;5138753;27;20359;-73
2024/02/12 11:14:00;;;;;;;;;;;;;;;;;;5134800;27;20010;-70
2024/02/12 11:16:27;;;;;;;;;;;;;;;;;;5111930;27;19956;-74
2024/02/12 11:18:53;;;;;;;;;;;;;;;;;;5137040;27;20656;-73
2024/02/12 11:21:22;;;;;;;;;;;;;;;;;;5139501;27;20003;-72
2024/02/12 11:23:50;;;;;;;;;;;;;;;;;;5130979;27;19919;-75
2024/02/12 11:26:16;;;;;;;;;;;;;;;;;;5129453;27;19911;-73
2024/02/12 11:28:42;;;;;;;;;;;;;;;;;;5130065;27;19923;-72
2024/02/12 11:31:12;;;;;;;;;;;;;;;;;;5112212;27;19916;-72
2024/02/12 11:35:22;;;;;;;;;;;;;;;;;;5085039;27;19921;-72
2024/02/12 11:38:58;;;;;;;;;;;;;;;;;;5067235;28;19920;-72
2024/02/12 11:42:09;;;;;;;;;;;;;;;;;;5067437;28;20331;-72
2024/02/12 11:48:28;;;;;;;;;;;;;;;;;;5088566;27;19916;-75
2024/02/12 11:50:55;;;;;;;;;;;;;;;;;;5077203;28;19927;-77
2024/02/12 11:53:21;;;;;;;;;;;;;;;;;;5077496;28;19939;-74
2024/02/12 11:55:47;;;;;;;;;;;;;;;;;;5085927;28;20404;-73
2024/02/12 11:59:53;;;;;;;;;;;;;;;;;;5114708;27;19927;-72
2024/02/12 12:02:19;;;;;;;;;;;;;;;;;;5109262;28;20007;-74
2024/02/12 12:06:14;;;;;;;;;;;;;;;;;;5111988;27;19926;-66
2024/02/12 12:08:41;;;;;;;;;;;;;;;;;;5107408;28;19916;-66
2024/02/12 12:11:07;;;;;;;;;;;;;;;;;;5108516;28;19980;-67
2024/02/12 12:13:33;;;;;;;;;;;;;;;;;;5114793;27;20317;-69
2024/02/12 12:15:59;;;;;;;;;;;;;;;;;;5107448;28;19926;-66
2024/02/12 12:23:14;;;;;;;;;;;;;;;;;;5166779;27;19923;-69
2024/02/12 12:25:56;;;;;;;;;;;;;;;;;;5083121;28;20384;-68
2024/02/12 12:28:23;;;;;;;;;;;;;;;;;;5082909;28;19947;-68
2024/02/12 12:32:15;;;;;;;;;;;;;;;;;;5122865;27;19919;-67
2024/02/12 12:34:41;;;;;;;;;;;;;;;;;;5121064;27;19966;-69
2024/02/12 12:37:07;;;;;;;;;;;;;;;;;;5114659;27;20627;-69
2024/02/12 12:39:33;;;;;;;;;;;;;;;;;;5118882;28;19915;-70
2024/02/12 12:41:59;;;;;;;;;;;;;;;;;;5119818;28;19918;-70
2024/02/12 12:44:26;;;;;;;;;;;;;;;;;;5114283;27;19951;-70
2024/02/12 12:46:53;;;;;;;;;;;;;;;;;;5125598;27;20375;-72
2024/02/12 12:49:19;;;;;;;;;;;;;;;;;;5108476;28;19908;-72
2024/02/12 12:51:45;;;;;;;;;;;;;;;;;;5113685;28;19935;-69
2024/02/12 12:55:00;;;;;;;;;;;;;;;;;;5087093;27;19923;-72
2024/02/12 12:57:26;;;;;;;;;;;;;;;;;;5087315;28;19966;-73
2024/02/12 12:59:52;;;;;;;;;;;;;;;;;;5086539;28;19908;-72
2024/02/12 13:02:20;;;;;;;;;;;;;;;;;;5088037;28;19923;-73
2024/02/12 13:04:45;;;;;;;;;;;;;;;;;;5088996;28;19962;-71
2024/02/12 13:07:12;;;;;;;;;;;;;;;;;;5089437;28;19908;-71
2024/02/12 13:09:38;;;;;;;;;;;;;;;;;;5090650;28;19956;-71
2024/02/12 13:12:05;;;;;;;;;;;;;;;;;;5090450;28;19908;-71
2024/02/12 13:14:31;;;;;;;;;;;;;;;;;;5090220;28;19920;-71
2024/02/12 13:16:57;;;;;;;;;;;;;;;;;;5089941;28;19913;-71
2024/02/12 13:19:23;;;;;;;;;;;;;;;;;;5090015;28;19916;-72
2024/02/12 13:21:49;;;;;;;;;;;;;;;;;;5090503;28;19952;-72
2024/02/12 13:24:15;;;;;;;;;;;;;;;;;;5090080;28;19919;-74
2024/02/12 13:26:42;;;;;;;;;;;;;;;;;;5088809;28;19909;-71
2024/02/12 13:29:08;;;;;;;;;;;;;;;;;;5089931;28;19923;-72
2024/02/12 13:35:39;;;;;;;;;;;;;;;;;;5071221;28;19917;-74
2024/02/12 13:38:10;;;;;;;;;;;;;;;;;;5071419;28;19912;-72
2024/02/12 13:40:36;;;;;;;;;;;;;;;;;;5070370;28;19909;-72
2024/02/12 13:43:13;;;;;;;;;;;;;;;;;;5087912;28;19912;-72
2024/02/12 13:45:39;;;;;;;;;;;;;;;;;;5090837;28;19912;-74
2024/02/12 13:48:07;;;;;;;;;;;;;;;;;;5090335;28;19956;-72
2024/02/12 13:50:33;;;;;;;;;;;;;;;;;;5089049;28;19919;-72
2024/02/12 13:53:00;;;;;;;;;;;;;;;;;;5088452;28;19920;-71
2024/02/12 13:56:31;;;;;;;;;;;;;;;;;;5085795;27;19920;-72
2024/02/12 13:58:58;;;;;;;;;;;;;;;;;;5090080;28;19978;-72
2024/02/12 14:01:24;;;;;;;;;;;;;;;;;;5089581;28;19908;-73
2024/02/12 14:03:50;;;;;;;;;;;;;;;;;;5084691;28;19912;-74
2024/02/12 14:08:48;;;;;;;;;;;;;;;;;;5194092;27;19915;-74
2024/02/12 14:11:15;;;;;;;;;;;;;;;;;;5192038;27;20289;-75
2024/02/12 14:14:01;;;;;;;;;;;;;;;;;;5089143;27;19917;-75
2024/02/12 14:16:27;;;;;;;;;;;;;;;;;;5089139;28;19918;-73
2024/02/12 14:18:53;;;;;;;;;;;;;;;;;;5087441;28;19909;-74
2024/02/12 14:21:21;;;;;;;;;;;;;;;;;;5089182;28;20007;-75
2024/02/12 14:23:47;;;;;;;;;;;;;;;;;;5088336;28;19913;-74
2024/02/12 14:27:00;;;;;;;;;;;;;;;;;;5109126;27;19916;-73
2024/02/12 14:29:26;;;;;;;;;;;;;;;;;;5110860;28;19919;-74
2024/02/12 14:31:52;;;;;;;;;;;;;;;;;;5110704;28;20280;-75
2024/02/12 14:34:18;;;;;;;;;;;;;;;;;;5110817;28;19970;-74
2024/02/12 14:36:44;;;;;;;;;;;;;;;;;;5111238;28;19946;-74
2024/02/12 14:39:10;;;;;;;;;;;;;;;;;;5111083;28;19912;-73
2024/02/12 14:42:50;;;;;;;;;;;;;;;;;;4968302;28;19919;-74
2024/02/12 14:45:16;;;;;;;;;;;;;;;;;;4968608;28;19914;-74
2024/02/12 14:47:42;;;;;;;;;;;;;;;;;;4968608;28;19956;-74
2024/02/12 14:50:09;;;;;;;;;;;;;;;;;;4968622;28;20005;-73
2024/02/12 14:52:36;;;;;;;;;;;;;;;;;;4967131;28;19917;-74
2024/02/12 14:55:02;;;;;;;;;;;;;;;;;;4966512;28;20397;-74
2024/02/12 14:57:28;;;;;;;;;;;;;;;;;;4966579;28;19960;-74
2024/02/12 14:59:54;;;;;;;;;;;;;;;;;;4966102;28;19937;-74
2024/02/12 15:02:22;;;;;;;;;;;;;;;;;;4966369;28;19930;-73
2024/02/12 15:04:48;;;;;;;;;;;;;;;;;;4966002;28;19936;-73
2024/02/12 15:07:14;;;;;;;;;;;;;;;;;;4966563;28;19914;-74
2024/02/12 15:09:44;;;;;;;;;;;;;;;;;;4968597;28;19914;-74
2024/02/12 15:12:10;;;;;;;;;;;;;;;;;;4963595;28;19918;-73
2024/02/12 15:14:36;;;;;;;;;;;;;;;;;;4960470;28;20371;-73
2024/02/12 15:18:12;;;;;;;;;;;;;;;;;;5126102;27;19922;-73
2024/02/12 15:20:38;;;;;;;;;;;;;;;;;;5124820;27;19920;-73
2024/02/12 15:23:06;;;;;;;;;;;;;;;;;;5125992;28;20352;-75
2024/02/12 15:25:32;;;;;;;;;;;;;;;;;;5129876;27;20379;-74
2024/02/12 15:28:04;;;;;;;;;;;;;;;;;;5128946;28;19956;-74
2024/02/12 15:30:30;;;;;;;;;;;;;;;;;;5129689;27;19990;-74
2024/02/12 15:32:56;;;;;;;;;;;;;;;;;;5129351;28;19954;-73
2024/02/12 15:35:24;;;;;;;;;;;;;;;;;;5129369;27;19907;-74
2024/02/12 15:41:06;;;;;;;;;;;;;;;;;;5110861;27;20295;-74
2024/02/12 15:45:48;;;;;;;;;;;;;;;;;;5091537;27;20296;-75
2024/02/12 15:48:29;;;;;;;;;;;;;;;;;;5090529;27;20269;-74
2024/02/12 15:50:56;;;;;;;;;;;;;;;;;;5091339;28;20384;-75
2024/02/12 15:53:22;;;;;;;;;;;;;;;;;;5088812;28;19954;-75
2024/02/12 15:55:48;;;;;;;;;;;;;;;;;;5089653;28;19908;-74
2024/02/12 15:59:35;;;;;;;;;;;;;;;;;;5152652;27;20470;-74
2024/02/12 16:06:04;;;;;;;;;;;;;;;;;;5173333;27;19922;-75
2024/02/12 16:08:30;;;;;;;;;;;;;;;;;;5173164;27;19911;-74
2024/02/12 16:10:58;;;;;;;;;;;;;;;;;;5173091;27;19984;-75
2024/02/12 16:13:26;;;;;;;;;;;;;;;;;;5172623;27;19914;-75
2024/02/12 16:15:52;;;;;;;;;;;;;;;;;;5154220;27;20001;-74
2024/02/12 16:18:18;;;;;;;;;;;;;;;;;;5172962;27;19965;-75
2024/02/12 16:20:44;;;;;;;;;;;;;;;;;;5172826;27;19934;-74
2024/02/12 16:23:10;;;;;;;;;;;;;;;;;;5154104;27;19952;-74
2024/02/12 16:25:37;;;;;;;;;;;;;;;;;;5172951;27;19915;-74
2024/02/12 16:28:03;;;;;;;;;;;;;;;;;;5173440;27;19914;-74
2024/02/12 16:30:29;;;;;;;;;;;;;;;;;;5172805;27;19963;-74
2024/02/12 16:32:55;;;;;;;;;;;;;;;;;;5173198;27;19907;-74
2024/02/12 16:35:21;;;;;;;;;;;;;;;;;;5173215;27;19907;-74
2024/02/12 16:37:47;;;;;;;;;;;;;;;;;;5172714;27;19930;-74
2024/02/12 16:40:13;;;;;;;;;;;;;;;;;;5154339;27;20039;-75
2024/02/12 16:42:41;;;;;;;;;;;;;;;;;;5173024;27;19958;-75
2024/02/12 16:45:08;;;;;;;;;;;;;;;;;;5172506;27;19915;-74
2024/02/12 16:47:34;;;;;;;;;;;;;;;;;;5172871;27;19907;-74
2024/02/12 16:50:00;;;;;;;;;;;;;;;;;;5172817;27;20259;-74
2024/02/12 16:52:26;;;;;;;;;;;;;;;;;;5153689;27;19907;-75
2024/02/12 16:54:52;;;;;;;;;;;;;;;;;;5172742;27;19907;-74
2024/02/12 16:57:18;;;;;;;;;;;;;;;;;;5153680;27;19943;-74
2024/02/12 16:59:47;;;;;;;;;;;;;;;;;;5172584;27;19907;-74
2024/02/12 17:02:13;;;;;;;;;;;;;;;;;;5172631;27;19907;-75
2024/02/12 17:04:39;;;;;;;;;;;;;;;;;;5172016;27;19929;-74
2024/02/12 17:07:05;;;;;;;;;;;;;;;;;;5172697;27;20363;-74
2024/02/12 17:09:32;;;;;;;;;;;;;;;;;;5172501;27;19911;-74
2024/02/12 17:11:58;;;;;;;;;;;;;;;;;;5172267;27;19907;-75
2024/02/12 17:14:24;;;;;;;;;;;;;;;;;;5172524;27;19907;-75
2024/02/12 17:16:52;;;;;;;;;;;;;;;;;;5161248;27;19907;-75
2024/02/12 17:19:18;;;;;;;;;;;;;;;;;;5158257;27;19907;-75
2024/02/12 17:21:44;;;;;;;;;;;;;;;;;;5158409;27;19960;-75
2024/02/12 17:24:10;;;;;;;;;;;;;;;;;;5158293;27;19911;-75
2024/02/12 17:26:36;;;;;;;;;;;;;;;;;;5157836;27;19907;-75
2024/02/12 17:29:02;;;;;;;;;;;;;;;;;;5158377;27;19914;-74
2024/02/12 17:31:28;;;;;;;;;;;;;;;;;;5158427;27;20371;-75
2024/02/12 17:33:54;;;;;;;;;;;;;;;;;;5157833;27;20439;-75